sensor_id;sensor_type;location;lat;lon;timestamp;P1;durP1;ratioP1;P2;durP2;ratioP2
30185;SDS011;31152;49.190;8.122;2023-09-07T00:02:10;8.43;;;4.25;;
30185;SDS011;31152;49.190;8.122;2023-09-07T00:04:37;8.45;;;4.28;;
30185;SDS011;31152;49.190;8.122;2023-09-07T00:07:04;5.55;;;4.15;;
30185;SDS011;31152;49.190;8.122;2023-09-07T00:09:31;7.07;;;4.40;;
30185;SDS011;31152;49.190;8.122;2023-09-07T00:12:00;8.30;;;4.25;;
30185;SDS011;31152;49.190;8.122;2023-09-07T00:14:27;7.80;;;4.30;;
30185;SDS011;31152;49.190;8.122;2023-09-07T00:16:53;7.13;;;4.50;;
30185;SDS011;31152;49.190;8.122;2023-09-07T00:19:20;9.85;;;4.47;;
30185;SDS011;31152;49.190;8.122;2023-09-07T00:21:47;8.93;;;4.40;;
30185;SDS011;31152;49.190;8.122;2023-09-07T00:24:20;10.82;;;4.78;;
30185;SDS011;31152;49.190;8.122;2023-09-07T00:26:49;6.18;;;4.40;;
30185;SDS011;31152;49.190;8.122;2023-09-07T00:29:16;7.22;;;4.53;;
30185;SDS011;31152;49.190;8.122;2023-09-07T00:31:42;8.20;;;4.72;;
30185;SDS011;31152;49.190;8.122;2023-09-07T00:34:09;12.10;;;4.68;;
30185;SDS011;31152;49.190;8.122;2023-09-07T00:36:38;5.28;;;3.85;;
30185;SDS011;31152;49.190;8.122;2023-09-07T00:39:05;8.05;;;4.50;;
30185;SDS011;31152;49.190;8.122;2023-09-07T00:41:32;6.93;;;4.72;;
30185;SDS011;31152;49.190;8.122;2023-09-07T00:43:58;6.50;;;4.15;;
30185;SDS011;31152;49.190;8.122;2023-09-07T00:46:25;5.50;;;3.97;;
30185;SDS011;31152;49.190;8.122;2023-09-07T00:48:52;6.95;;;4.40;;
30185;SDS011;31152;49.190;8.122;2023-09-07T00:51:19;6.05;;;4.40;;
30185;SDS011;31152;49.190;8.122;2023-09-07T00:53:46;6.13;;;3.92;;
30185;SDS011;31152;49.190;8.122;2023-09-07T00:56:13;11.10;;;4.75;;
30185;SDS011;31152;49.190;8.122;2023-09-07T00:58:40;5.88;;;3.80;;
30185;SDS011;31152;49.190;8.122;2023-09-07T01:01:07;5.88;;;4.45;;
30185;SDS011;31152;49.190;8.122;2023-09-07T01:03:34;8.88;;;4.53;;
30185;SDS011;31152;49.190;8.122;2023-09-07T01:06:03;7.97;;;4.35;;
30185;SDS011;31152;49.190;8.122;2023-09-07T01:08:39;5.82;;;4.45;;
30185;SDS011;31152;49.190;8.122;2023-09-07T01:11:16;7.47;;;4.22;;
30185;SDS011;31152;49.190;8.122;2023-09-07T01:13:44;6.40;;;4.22;;
30185;SDS011;31152;49.190;8.122;2023-09-07T01:16:12;9.23;;;4.65;;
30185;SDS011;31152;49.190;8.122;2023-09-07T01:18:40;7.32;;;4.25;;
30185;SDS011;31152;49.190;8.122;2023-09-07T01:21:08;6.95;;;4.05;;
30185;SDS011;31152;49.190;8.122;2023-09-07T01:23:38;6.05;;;4.68;;
30185;SDS011;31152;49.190;8.122;2023-09-07T01:26:09;7.57;;;4.28;;
30185;SDS011;31152;49.190;8.122;2023-09-07T01:28:37;7.57;;;4.00;;
30185;SDS011;31152;49.190;8.122;2023-09-07T01:31:06;8.40;;;4.45;;
30185;SDS011;31152;49.190;8.122;2023-09-07T01:33:36;5.30;;;4.28;;
30185;SDS011;31152;49.190;8.122;2023-09-07T01:36:03;5.75;;;3.95;;
30185;SDS011;31152;49.190;8.122;2023-09-07T01:38:30;6.78;;;4.32;;
30185;SDS011;31152;49.190;8.122;2023-09-07T01:40:58;11.60;;;5.28;;
30185;SDS011;31152;49.190;8.122;2023-09-07T01:43:24;7.28;;;4.45;;
30185;SDS011;31152;49.190;8.122;2023-09-07T01:45:54;8.13;;;4.75;;
30185;SDS011;31152;49.190;8.122;2023-09-07T01:48:21;7.90;;;4.30;;
30185;SDS011;31152;49.190;8.122;2023-09-07T01:50:51;6.88;;;4.63;;
30185;SDS011;31152;49.190;8.122;2023-09-07T01:53:19;5.72;;;4.10;;
30185;SDS011;31152;49.190;8.122;2023-09-07T01:55:49;6.90;;;4.50;;
30185;SDS011;31152;49.190;8.122;2023-09-07T01:58:16;9.10;;;4.80;;
30185;SDS011;31152;49.190;8.122;2023-09-07T02:00:42;5.63;;;3.88;;
30185;SDS011;31152;49.190;8.122;2023-09-07T02:03:09;6.75;;;4.22;;
30185;SDS011;31152;49.190;8.122;2023-09-07T02:05:37;9.88;;;4.50;;
30185;SDS011;31152;49.190;8.122;2023-09-07T02:08:05;5.55;;;4.22;;
30185;SDS011;31152;49.190;8.122;2023-09-07T02:10:33;6.78;;;4.43;;
30185;SDS011;31152;49.190;8.122;2023-09-07T02:13:00;7.65;;;4.60;;
30185;SDS011;31152;49.190;8.122;2023-09-07T02:15:26;6.75;;;4.40;;
30185;SDS011;31152;49.190;8.122;2023-09-07T02:17:53;7.10;;;4.30;;
30185;SDS011;31152;49.190;8.122;2023-09-07T02:20:20;6.00;;;4.32;;
30185;SDS011;31152;49.190;8.122;2023-09-07T02:22:50;7.30;;;4.28;;
30185;SDS011;31152;49.190;8.122;2023-09-07T02:25:16;7.45;;;4.50;;
30185;SDS011;31152;49.190;8.122;2023-09-07T02:27:43;7.70;;;4.38;;
30185;SDS011;31152;49.190;8.122;2023-09-07T02:30:10;9.80;;;5.15;;
30185;SDS011;31152;49.190;8.122;2023-09-07T02:32:40;7.97;;;4.35;;
30185;SDS011;31152;49.190;8.122;2023-09-07T02:35:08;6.70;;;4.30;;
30185;SDS011;31152;49.190;8.122;2023-09-07T02:37:35;7.60;;;4.20;;
30185;SDS011;31152;49.190;8.122;2023-09-07T02:40:03;7.65;;;4.90;;
30185;SDS011;31152;49.190;8.122;2023-09-07T02:42:34;8.70;;;4.65;;
30185;SDS011;31152;49.190;8.122;2023-09-07T02:45:01;6.18;;;4.40;;
30185;SDS011;31152;49.190;8.122;2023-09-07T02:47:28;9.25;;;4.40;;
30185;SDS011;31152;49.190;8.122;2023-09-07T02:49:55;7.18;;;3.92;;
30185;SDS011;31152;49.190;8.122;2023-09-07T02:52:22;10.45;;;4.30;;
30185;SDS011;31152;49.190;8.122;2023-09-07T02:54:48;6.25;;;4.10;;
30185;SDS011;31152;49.190;8.122;2023-09-07T02:57:15;6.32;;;4.10;;
30185;SDS011;31152;49.190;8.122;2023-09-07T02:59:44;4.57;;;3.65;;
30185;SDS011;31152;49.190;8.122;2023-09-07T03:02:11;5.00;;;4.18;;
30185;SDS011;31152;49.190;8.122;2023-09-07T03:04:38;5.85;;;3.95;;
30185;SDS011;31152;49.190;8.122;2023-09-07T03:07:05;5.30;;;4.03;;
30185;SDS011;31152;49.190;8.122;2023-09-07T03:09:34;5.82;;;4.00;;
30185;SDS011;31152;49.190;8.122;2023-09-07T03:12:04;7.00;;;3.88;;
30185;SDS011;31152;49.190;8.122;2023-09-07T03:14:33;5.28;;;4.25;;
30185;SDS011;31152;49.190;8.122;2023-09-07T03:17:00;8.43;;;4.43;;
30185;SDS011;31152;49.190;8.122;2023-09-07T03:19:27;8.75;;;4.32;;
30185;SDS011;31152;49.190;8.122;2023-09-07T03:21:54;5.43;;;3.80;;
30185;SDS011;31152;49.190;8.122;2023-09-07T03:24:21;10.35;;;4.88;;
30185;SDS011;31152;49.190;8.122;2023-09-07T03:26:50;7.05;;;4.82;;
30185;SDS011;31152;49.190;8.122;2023-09-07T03:29:19;5.82;;;4.15;;
30185;SDS011;31152;49.190;8.122;2023-09-07T03:31:46;11.80;;;4.20;;
30185;SDS011;31152;49.190;8.122;2023-09-07T03:34:13;5.15;;;3.92;;
30185;SDS011;31152;49.190;8.122;2023-09-07T03:36:40;6.10;;;4.15;;
30185;SDS011;31152;49.190;8.122;2023-09-07T03:39:07;5.20;;;4.25;;
30185;SDS011;31152;49.190;8.122;2023-09-07T03:41:36;6.25;;;4.28;;
30185;SDS011;31152;49.190;8.122;2023-09-07T03:44:03;9.20;;;4.22;;
30185;SDS011;31152;49.190;8.122;2023-09-07T03:46:30;8.10;;;4.03;;
30185;SDS011;31152;49.190;8.122;2023-09-07T03:48:57;6.25;;;4.00;;
30185;SDS011;31152;49.190;8.122;2023-09-07T03:51:24;8.82;;;3.67;;
30185;SDS011;31152;49.190;8.122;2023-09-07T03:53:51;5.57;;;4.13;;
30185;SDS011;31152;49.190;8.122;2023-09-07T03:56:20;6.60;;;4.38;;
30185;SDS011;31152;49.190;8.122;2023-09-07T03:58:47;9.15;;;4.32;;
30185;SDS011;31152;49.190;8.122;2023-09-07T04:01:13;7.97;;;4.25;;
30185;SDS011;31152;49.190;8.122;2023-09-07T04:03:40;8.13;;;4.88;;
30185;SDS011;31152;49.190;8.122;2023-09-07T04:06:08;8.00;;;4.03;;
30185;SDS011;31152;49.190;8.122;2023-09-07T04:08:35;8.32;;;4.55;;
30185;SDS011;31152;49.190;8.122;2023-09-07T04:11:05;7.97;;;4.15;;
30185;SDS011;31152;49.190;8.122;2023-09-07T04:13:35;9.75;;;4.47;;
30185;SDS011;31152;49.190;8.122;2023-09-07T04:16:05;8.77;;;3.90;;
30185;SDS011;31152;49.190;8.122;2023-09-07T04:18:34;6.63;;;3.90;;
30185;SDS011;31152;49.190;8.122;2023-09-07T04:21:07;8.18;;;4.07;;
30185;SDS011;31152;49.190;8.122;2023-09-07T04:23:34;6.78;;;4.35;;
30185;SDS011;31152;49.190;8.122;2023-09-07T04:26:08;7.30;;;4.45;;
30185;SDS011;31152;49.190;8.122;2023-09-07T04:28:37;7.05;;;3.97;;
30185;SDS011;31152;49.190;8.122;2023-09-07T04:31:05;7.32;;;4.47;;
30185;SDS011;31152;49.190;8.122;2023-09-07T04:33:32;7.15;;;4.53;;
30185;SDS011;31152;49.190;8.122;2023-09-07T04:36:09;6.53;;;4.70;;
30185;SDS011;31152;49.190;8.122;2023-09-07T04:38:40;7.32;;;4.15;;
30185;SDS011;31152;49.190;8.122;2023-09-07T04:41:11;6.00;;;4.18;;
30185;SDS011;31152;49.190;8.122;2023-09-07T04:43:42;6.63;;;4.20;;
30185;SDS011;31152;49.190;8.122;2023-09-07T04:46:10;11.30;;;4.53;;
30185;SDS011;31152;49.190;8.122;2023-09-07T04:48:40;7.30;;;4.40;;
30185;SDS011;31152;49.190;8.122;2023-09-07T04:51:08;6.25;;;4.07;;
30185;SDS011;31152;49.190;8.122;2023-09-07T04:53:36;7.53;;;4.63;;
30185;SDS011;31152;49.190;8.122;2023-09-07T04:56:04;9.48;;;4.03;;
30185;SDS011;31152;49.190;8.122;2023-09-07T04:58:32;7.78;;;4.30;;
30185;SDS011;31152;49.190;8.122;2023-09-07T05:01:03;10.15;;;4.13;;
30185;SDS011;31152;49.190;8.122;2023-09-07T05:03:35;8.35;;;4.55;;
30185;SDS011;31152;49.190;8.122;2023-09-07T05:06:03;7.15;;;4.38;;
30185;SDS011;31152;49.190;8.122;2023-09-07T05:08:30;6.93;;;4.05;;
30185;SDS011;31152;49.190;8.122;2023-09-07T05:11:00;6.57;;;4.03;;
30185;SDS011;31152;49.190;8.122;2023-09-07T05:13:29;8.85;;;5.22;;
30185;SDS011;31152;49.190;8.122;2023-09-07T05:15:57;12.63;;;4.38;;
30185;SDS011;31152;49.190;8.122;2023-09-07T05:18:26;8.20;;;4.43;;
30185;SDS011;31152;49.190;8.122;2023-09-07T05:20:53;13.95;;;4.47;;
30185;SDS011;31152;49.190;8.122;2023-09-07T05:23:21;16.27;;;4.60;;
30185;SDS011;31152;49.190;8.122;2023-09-07T05:25:49;9.50;;;4.53;;
30185;SDS011;31152;49.190;8.122;2023-09-07T05:28:20;13.95;;;5.07;;
30185;SDS011;31152;49.190;8.122;2023-09-07T05:30:48;15.07;;;4.97;;
30185;SDS011;31152;49.190;8.122;2023-09-07T05:33:17;10.07;;;4.70;;
30185;SDS011;31152;49.190;8.122;2023-09-07T05:35:45;8.23;;;4.30;;
30185;SDS011;31152;49.190;8.122;2023-09-07T05:38:12;13.93;;;4.93;;
30185;SDS011;31152;49.190;8.122;2023-09-07T05:40:40;11.32;;;4.82;;
30185;SDS011;31152;49.190;8.122;2023-09-07T05:43:08;10.45;;;5.30;;
30185;SDS011;31152;49.190;8.122;2023-09-07T05:45:41;15.73;;;4.95;;
30185;SDS011;31152;49.190;8.122;2023-09-07T05:48:10;9.10;;;4.72;;
30185;SDS011;31152;49.190;8.122;2023-09-07T05:50:37;11.85;;;4.50;;
30185;SDS011;31152;49.190;8.122;2023-09-07T05:53:07;13.07;;;4.47;;
30185;SDS011;31152;49.190;8.122;2023-09-07T05:55:36;6.13;;;4.55;;
30185;SDS011;31152;49.190;8.122;2023-09-07T05:58:06;7.05;;;4.63;;
30185;SDS011;31152;49.190;8.122;2023-09-07T06:00:35;6.75;;;4.45;;
30185;SDS011;31152;49.190;8.122;2023-09-07T06:03:02;11.25;;;4.80;;
30185;SDS011;31152;49.190;8.122;2023-09-07T06:05:29;9.25;;;3.97;;
30185;SDS011;31152;49.190;8.122;2023-09-07T06:07:59;4.93;;;4.15;;
30185;SDS011;31152;49.190;8.122;2023-09-07T06:10:28;8.27;;;4.60;;
30185;SDS011;31152;49.190;8.122;2023-09-07T06:12:56;6.28;;;4.38;;
30185;SDS011;31152;49.190;8.122;2023-09-07T06:15:26;6.95;;;4.53;;
30185;SDS011;31152;49.190;8.122;2023-09-07T06:17:53;8.23;;;4.05;;
30185;SDS011;31152;49.190;8.122;2023-09-07T06:20:20;6.72;;;4.00;;
30185;SDS011;31152;49.190;8.122;2023-09-07T06:22:48;11.02;;;4.10;;
30185;SDS011;31152;49.190;8.122;2023-09-07T06:25:17;6.43;;;4.13;;
30185;SDS011;31152;49.190;8.122;2023-09-07T06:27:44;7.85;;;4.05;;
30185;SDS011;31152;49.190;8.122;2023-09-07T06:30:11;10.05;;;3.90;;
30185;SDS011;31152;49.190;8.122;2023-09-07T06:32:38;6.30;;;3.80;;
30185;SDS011;31152;49.190;8.122;2023-09-07T06:35:08;6.85;;;3.53;;
30185;SDS011;31152;49.190;8.122;2023-09-07T06:37:38;6.93;;;3.90;;
30185;SDS011;31152;49.190;8.122;2023-09-07T06:40:08;7.82;;;4.22;;
30185;SDS011;31152;49.190;8.122;2023-09-07T06:42:36;10.07;;;3.60;;
30185;SDS011;31152;49.190;8.122;2023-09-07T06:45:03;7.38;;;3.85;;
30185;SDS011;31152;49.190;8.122;2023-09-07T06:47:33;5.50;;;3.83;;
30185;SDS011;31152;49.190;8.122;2023-09-07T06:50:01;6.97;;;3.65;;
30185;SDS011;31152;49.190;8.122;2023-09-07T06:52:31;5.10;;;3.50;;
30185;SDS011;31152;49.190;8.122;2023-09-07T06:54:58;5.70;;;3.83;;
30185;SDS011;31152;49.190;8.122;2023-09-07T06:57:24;8.60;;;3.90;;
30185;SDS011;31152;49.190;8.122;2023-09-07T06:59:51;9.38;;;4.03;;
30185;SDS011;31152;49.190;8.122;2023-09-07T07:02:18;8.45;;;4.07;;
30185;SDS011;31152;49.190;8.122;2023-09-07T07:04:46;6.38;;;4.38;;
30185;SDS011;31152;49.190;8.122;2023-09-07T07:07:13;6.03;;;3.45;;
30185;SDS011;31152;49.190;8.122;2023-09-07T07:09:40;12.65;;;3.70;;
30185;SDS011;31152;49.190;8.122;2023-09-07T07:12:06;6.30;;;3.50;;
30185;SDS011;31152;49.190;8.122;2023-09-07T07:14:33;5.25;;;3.75;;
30185;SDS011;31152;49.190;8.122;2023-09-07T07:17:00;5.78;;;3.80;;
30185;SDS011;31152;49.190;8.122;2023-09-07T07:19:31;10.88;;;4.10;;
30185;SDS011;31152;49.190;8.122;2023-09-07T07:21:58;6.55;;;3.80;;
30185;SDS011;31152;49.190;8.122;2023-09-07T07:24:25;5.90;;;3.55;;
30185;SDS011;31152;49.190;8.122;2023-09-07T07:26:52;5.22;;;3.60;;
30185;SDS011;31152;49.190;8.122;2023-09-07T07:29:19;8.30;;;4.35;;
30185;SDS011;31152;49.190;8.122;2023-09-07T07:31:46;9.52;;;4.10;;
30185;SDS011;31152;49.190;8.122;2023-09-07T07:34:16;10.43;;;3.95;;
30185;SDS011;31152;49.190;8.122;2023-09-07T07:36:43;6.15;;;3.90;;
30185;SDS011;31152;49.190;8.122;2023-09-07T07:39:10;8.32;;;4.13;;
30185;SDS011;31152;49.190;8.122;2023-09-07T07:41:37;11.98;;;4.18;;
30185;SDS011;31152;49.190;8.122;2023-09-07T07:44:07;7.75;;;4.18;;
30185;SDS011;31152;49.190;8.122;2023-09-07T07:46:34;9.63;;;3.88;;
30185;SDS011;31152;49.190;8.122;2023-09-07T07:49:01;7.05;;;3.97;;
30185;SDS011;31152;49.190;8.122;2023-09-07T07:51:28;5.60;;;4.20;;
30185;SDS011;31152;49.190;8.122;2023-09-07T07:53:57;6.32;;;4.10;;
30185;SDS011;31152;49.190;8.122;2023-09-07T07:56:24;7.53;;;4.53;;
30185;SDS011;31152;49.190;8.122;2023-09-07T07:58:51;9.35;;;4.53;;
30185;SDS011;31152;49.190;8.122;2023-09-07T08:01:20;10.18;;;4.15;;
30185;SDS011;31152;49.190;8.122;2023-09-07T08:03:54;5.75;;;3.75;;
30185;SDS011;31152;49.190;8.122;2023-09-07T08:06:22;7.53;;;4.00;;
30185;SDS011;31152;49.190;8.122;2023-09-07T08:08:49;10.85;;;3.90;;
30185;SDS011;31152;49.190;8.122;2023-09-07T08:11:18;8.88;;;4.35;;
30185;SDS011;31152;49.190;8.122;2023-09-07T08:13:47;7.95;;;4.45;;
30185;SDS011;31152;49.190;8.122;2023-09-07T08:16:17;8.65;;;4.20;;
30185;SDS011;31152;49.190;8.122;2023-09-07T08:18:44;9.40;;;4.22;;
30185;SDS011;31152;49.190;8.122;2023-09-07T08:21:13;6.57;;;4.13;;
30185;SDS011;31152;49.190;8.122;2023-09-07T08:23:40;10.93;;;4.47;;
30185;SDS011;31152;49.190;8.122;2023-09-07T08:26:09;7.28;;;4.60;;
30185;SDS011;31152;49.190;8.122;2023-09-07T08:28:38;6.82;;;4.30;;
30185;SDS011;31152;49.190;8.122;2023-09-07T08:31:05;4.90;;;3.90;;
30185;SDS011;31152;49.190;8.122;2023-09-07T08:33:32;8.30;;;4.25;;
30185;SDS011;31152;49.190;8.122;2023-09-07T08:36:06;7.75;;;4.32;;
30185;SDS011;31152;49.190;8.122;2023-09-07T08:38:37;11.27;;;4.18;;
30185;SDS011;31152;49.190;8.122;2023-09-07T08:41:04;10.38;;;3.90;;
30185;SDS011;31152;49.190;8.122;2023-09-07T08:43:33;9.13;;;4.55;;
30185;SDS011;31152;49.190;8.122;2023-09-07T08:46:13;6.25;;;4.32;;
30185;SDS011;31152;49.190;8.122;2023-09-07T08:48:47;10.85;;;4.30;;
30185;SDS011;31152;49.190;8.122;2023-09-07T08:51:16;5.40;;;4.07;;
30185;SDS011;31152;49.190;8.122;2023-09-07T08:53:47;8.50;;;3.95;;
30185;SDS011;31152;49.190;8.122;2023-09-07T08:56:18;8.43;;;5.10;;
30185;SDS011;31152;49.190;8.122;2023-09-07T08:58:47;12.13;;;4.85;;
30185;SDS011;31152;49.190;8.122;2023-09-07T09:01:17;7.25;;;4.63;;
30185;SDS011;31152;49.190;8.122;2023-09-07T09:03:45;7.72;;;4.50;;
30185;SDS011;31152;49.190;8.122;2023-09-07T09:06:12;11.95;;;4.82;;
30185;SDS011;31152;49.190;8.122;2023-09-07T09:08:43;9.63;;;4.60;;
30185;SDS011;31152;49.190;8.122;2023-09-07T09:11:11;7.78;;;4.97;;
30185;SDS011;31152;49.190;8.122;2023-09-07T09:13:39;7.60;;;4.65;;
30185;SDS011;31152;49.190;8.122;2023-09-07T09:16:10;7.93;;;4.78;;
30185;SDS011;31152;49.190;8.122;2023-09-07T09:18:37;7.65;;;4.03;;
30185;SDS011;31152;49.190;8.122;2023-09-07T09:21:07;8.07;;;4.00;;
30185;SDS011;31152;49.190;8.122;2023-09-07T09:23:35;6.97;;;4.45;;
30185;SDS011;31152;49.190;8.122;2023-09-07T09:26:04;9.43;;;4.40;;
30185;SDS011;31152;49.190;8.122;2023-09-07T09:28:32;9.02;;;4.25;;
30185;SDS011;31152;49.190;8.122;2023-09-07T09:31:00;8.20;;;4.20;;
30185;SDS011;31152;49.190;8.122;2023-09-07T09:33:30;4.88;;;3.75;;
30185;SDS011;31152;49.190;8.122;2023-09-07T09:35:57;6.25;;;4.22;;
30185;SDS011;31152;49.190;8.122;2023-09-07T09:38:25;6.60;;;4.22;;
30185;SDS011;31152;49.190;8.122;2023-09-07T09:40:53;6.13;;;3.72;;
30185;SDS011;31152;49.190;8.122;2023-09-07T09:43:21;7.82;;;3.95;;
30185;SDS011;31152;49.190;8.122;2023-09-07T09:45:48;7.20;;;4.65;;
30185;SDS011;31152;49.190;8.122;2023-09-07T09:48:19;7.82;;;4.07;;
30185;SDS011;31152;49.190;8.122;2023-09-07T09:50:49;6.72;;;4.03;;
30185;SDS011;31152;49.190;8.122;2023-09-07T09:53:19;9.27;;;3.97;;
30185;SDS011;31152;49.190;8.122;2023-09-07T09:55:47;7.15;;;3.90;;
30185;SDS011;31152;49.190;8.122;2023-09-07T09:58:15;10.80;;;3.70;;
30185;SDS011;31152;49.190;8.122;2023-09-07T10:00:42;5.68;;;3.90;;
30185;SDS011;31152;49.190;8.122;2023-09-07T10:03:24;8.30;;;3.90;;
30185;SDS011;31152;49.190;8.122;2023-09-07T10:08:37;5.93;;;3.33;;
30185;SDS011;31152;49.190;8.122;2023-09-07T10:11:09;9.40;;;3.75;;
30185;SDS011;31152;49.190;8.122;2023-09-07T10:13:36;7.35;;;3.97;;
30185;SDS011;31152;49.190;8.122;2023-09-07T10:16:03;11.25;;;4.18;;
30185;SDS011;31152;49.190;8.122;2023-09-07T10:18:34;7.63;;;3.83;;
30185;SDS011;31152;49.190;8.122;2023-09-07T10:21:05;5.93;;;4.20;;
30185;SDS011;31152;49.190;8.122;2023-09-07T10:23:36;7.50;;;3.72;;
30185;SDS011;31152;49.190;8.122;2023-09-07T10:26:05;7.60;;;4.10;;
30185;SDS011;31152;49.190;8.122;2023-09-07T10:28:36;7.07;;;3.95;;
30185;SDS011;31152;49.190;8.122;2023-09-07T10:31:06;8.30;;;3.88;;
30185;SDS011;31152;49.190;8.122;2023-09-07T10:33:44;10.65;;;4.65;;
30185;SDS011;31152;49.190;8.122;2023-09-07T10:38:52;5.15;;;3.60;;
30185;SDS011;31152;49.190;8.122;2023-09-07T10:41:20;7.97;;;4.25;;
30185;SDS011;31152;49.190;8.122;2023-09-07T10:43:48;7.57;;;3.50;;
30185;SDS011;31152;49.190;8.122;2023-09-07T10:46:20;6.60;;;3.90;;
30185;SDS011;31152;49.190;8.122;2023-09-07T10:48:51;6.50;;;4.10;;
30185;SDS011;31152;49.190;8.122;2023-09-07T10:51:19;6.97;;;3.63;;
30185;SDS011;31152;49.190;8.122;2023-09-07T10:53:49;4.65;;;3.55;;
30185;SDS011;31152;49.190;8.122;2023-09-07T10:56:16;5.85;;;3.95;;
30185;SDS011;31152;49.190;8.122;2023-09-07T10:58:43;4.35;;;3.88;;
30185;SDS011;31152;49.190;8.122;2023-09-07T11:01:10;4.47;;;3.95;;
30185;SDS011;31152;49.190;8.122;2023-09-07T11:03:39;9.13;;;3.83;;
30185;SDS011;31152;49.190;8.122;2023-09-07T11:06:07;9.05;;;3.65;;
30185;SDS011;31152;49.190;8.122;2023-09-07T11:08:39;5.45;;;3.88;;
30185;SDS011;31152;49.190;8.122;2023-09-07T11:11:07;6.85;;;3.92;;
30185;SDS011;31152;49.190;8.122;2023-09-07T11:13:37;6.82;;;3.67;;
30185;SDS011;31152;49.190;8.122;2023-09-07T11:16:08;7.10;;;3.40;;
30185;SDS011;31152;49.190;8.122;2023-09-07T11:18:35;9.60;;;4.18;;
30185;SDS011;31152;49.190;8.122;2023-09-07T11:21:06;5.50;;;3.75;;
30185;SDS011;31152;49.190;8.122;2023-09-07T11:23:36;7.18;;;4.03;;
30185;SDS011;31152;49.190;8.122;2023-09-07T11:26:10;6.10;;;3.60;;
30185;SDS011;31152;49.190;8.122;2023-09-07T11:28:37;5.97;;;3.92;;
30185;SDS011;31152;49.190;8.122;2023-09-07T11:31:07;6.55;;;3.47;;
30185;SDS011;31152;49.190;8.122;2023-09-07T11:33:34;6.13;;;4.18;;
30185;SDS011;31152;49.190;8.122;2023-09-07T11:36:02;5.88;;;3.90;;
30185;SDS011;31152;49.190;8.122;2023-09-07T11:38:36;10.90;;;4.22;;
30185;SDS011;31152;49.190;8.122;2023-09-07T11:41:08;4.25;;;3.47;;
30185;SDS011;31152;49.190;8.122;2023-09-07T11:43:35;5.57;;;3.78;;
30185;SDS011;31152;49.190;8.122;2023-09-07T11:46:02;6.38;;;3.85;;
30185;SDS011;31152;49.190;8.122;2023-09-07T11:48:30;4.53;;;3.63;;
30185;SDS011;31152;49.190;8.122;2023-09-07T11:51:00;4.47;;;3.55;;
30185;SDS011;31152;49.190;8.122;2023-09-07T11:53:30;4.35;;;3.47;;
30185;SDS011;31152;49.190;8.122;2023-09-07T11:55:57;4.47;;;3.58;;
30185;SDS011;31152;49.190;8.122;2023-09-07T11:58:24;6.35;;;3.92;;
30185;SDS011;31152;49.190;8.122;2023-09-07T12:00:55;6.22;;;3.35;;
30185;SDS011;31152;49.190;8.122;2023-09-07T12:03:22;6.78;;;3.50;;
30185;SDS011;31152;49.190;8.122;2023-09-07T12:05:49;5.20;;;3.70;;
30185;SDS011;31152;49.190;8.122;2023-09-07T12:08:16;4.82;;;3.90;;
30185;SDS011;31152;49.190;8.122;2023-09-07T12:10:45;7.20;;;3.67;;
30185;SDS011;31152;49.190;8.122;2023-09-07T12:13:13;9.45;;;3.97;;
30185;SDS011;31152;49.190;8.122;2023-09-07T12:15:40;10.95;;;3.70;;
30185;SDS011;31152;49.190;8.122;2023-09-07T12:18:07;4.60;;;3.58;;
30185;SDS011;31152;49.190;8.122;2023-09-07T12:20:37;4.78;;;3.72;;
30185;SDS011;31152;49.190;8.122;2023-09-07T12:23:04;6.50;;;3.47;;
30185;SDS011;31152;49.190;8.122;2023-09-07T12:25:33;7.03;;;3.42;;
30185;SDS011;31152;49.190;8.122;2023-09-07T12:27:59;8.43;;;3.85;;
30185;SDS011;31152;49.190;8.122;2023-09-07T12:30:27;6.20;;;3.40;;
30185;SDS011;31152;49.190;8.122;2023-09-07T12:32:54;4.85;;;3.45;;
30185;SDS011;31152;49.190;8.122;2023-09-07T12:35:21;4.28;;;3.75;;
30185;SDS011;31152;49.190;8.122;2023-09-07T12:37:48;5.80;;;3.60;;
30185;SDS011;31152;49.190;8.122;2023-09-07T12:40:16;6.07;;;3.60;;
30185;SDS011;31152;49.190;8.122;2023-09-07T12:42:43;4.93;;;3.90;;
30185;SDS011;31152;49.190;8.122;2023-09-07T12:45:12;3.72;;;3.28;;
30185;SDS011;31152;49.190;8.122;2023-09-07T12:47:41;10.30;;;4.38;;
30185;SDS011;31152;49.190;8.122;2023-09-07T12:50:13;4.32;;;3.53;;
30185;SDS011;31152;49.190;8.122;2023-09-07T12:52:42;7.80;;;3.50;;
30185;SDS011;31152;49.190;8.122;2023-09-07T12:55:09;4.10;;;3.70;;
30185;SDS011;31152;49.190;8.122;2023-09-07T12:57:36;4.75;;;3.70;;
30185;SDS011;31152;49.190;8.122;2023-09-07T13:00:06;6.95;;;3.60;;
30185;SDS011;31152;49.190;8.122;2023-09-07T13:02:33;7.20;;;3.60;;
30185;SDS011;31152;49.190;8.122;2023-09-07T13:05:00;4.55;;;3.65;;
30185;SDS011;31152;49.190;8.122;2023-09-07T13:07:27;6.32;;;3.70;;
30185;SDS011;31152;49.190;8.122;2023-09-07T13:09:54;5.05;;;4.25;;
30185;SDS011;31152;49.190;8.122;2023-09-07T13:12:21;4.65;;;3.50;;
30185;SDS011;31152;49.190;8.122;2023-09-07T13:14:48;8.57;;;3.80;;
30185;SDS011;31152;49.190;8.122;2023-09-07T13:17:15;8.77;;;4.10;;
30185;SDS011;31152;49.190;8.122;2023-09-07T13:19:41;8.23;;;3.95;;
30185;SDS011;31152;49.190;8.122;2023-09-07T13:22:09;5.40;;;3.90;;
30185;SDS011;31152;49.190;8.122;2023-09-07T13:24:36;4.47;;;3.70;;
30185;SDS011;31152;49.190;8.122;2023-09-07T13:27:03;5.13;;;3.60;;
30185;SDS011;31152;49.190;8.122;2023-09-07T13:29:32;6.22;;;3.40;;
30185;SDS011;31152;49.190;8.122;2023-09-07T13:31:59;4.75;;;3.42;;
30185;SDS011;31152;49.190;8.122;2023-09-07T13:34:26;5.30;;;3.40;;
30185;SDS011;31152;49.190;8.122;2023-09-07T13:36:53;7.03;;;3.63;;
30185;SDS011;31152;49.190;8.122;2023-09-07T13:39:25;7.00;;;3.65;;
30185;SDS011;31152;49.190;8.122;2023-09-07T13:41:52;5.03;;;3.47;;
30185;SDS011;31152;49.190;8.122;2023-09-07T13:44:19;5.32;;;3.72;;
30185;SDS011;31152;49.190;8.122;2023-09-07T13:46:46;4.75;;;3.50;;
30185;SDS011;31152;49.190;8.122;2023-09-07T13:49:13;5.75;;;3.60;;
30185;SDS011;31152;49.190;8.122;2023-09-07T13:51:40;4.50;;;3.30;;
30185;SDS011;31152;49.190;8.122;2023-09-07T13:54:11;5.63;;;3.80;;
30185;SDS011;31152;49.190;8.122;2023-09-07T13:56:38;6.00;;;3.40;;
30185;SDS011;31152;49.190;8.122;2023-09-07T13:59:07;4.32;;;3.38;;
30185;SDS011;31152;49.190;8.122;2023-09-07T14:01:36;5.40;;;3.47;;
30185;SDS011;31152;49.190;8.122;2023-09-07T14:04:05;5.43;;;3.30;;
30185;SDS011;31152;49.190;8.122;2023-09-07T14:06:32;7.43;;;3.60;;
30185;SDS011;31152;49.190;8.122;2023-09-07T14:08:59;4.72;;;3.58;;
30185;SDS011;31152;49.190;8.122;2023-09-07T14:11:28;4.43;;;3.55;;
30185;SDS011;31152;49.190;8.122;2023-09-07T14:13:55;7.18;;;3.42;;
30185;SDS011;31152;49.190;8.122;2023-09-07T14:16:22;4.35;;;3.33;;
30185;SDS011;31152;49.190;8.122;2023-09-07T14:18:49;8.55;;;3.95;;
30185;SDS011;31152;49.190;8.122;2023-09-07T14:21:16;8.57;;;3.50;;
30185;SDS011;31152;49.190;8.122;2023-09-07T14:23:44;4.20;;;3.33;;
30185;SDS011;31152;49.190;8.122;2023-09-07T14:26:11;5.28;;;3.60;;
30185;SDS011;31152;49.190;8.122;2023-09-07T14:28:38;7.05;;;3.60;;
30185;SDS011;31152;49.190;8.122;2023-09-07T14:31:06;5.38;;;3.38;;
30185;SDS011;31152;49.190;8.122;2023-09-07T14:33:34;4.80;;;3.58;;
30185;SDS011;31152;49.190;8.122;2023-09-07T14:36:06;4.35;;;3.50;;
30185;SDS011;31152;49.190;8.122;2023-09-07T14:38:34;8.60;;;3.17;;
30185;SDS011;31152;49.190;8.122;2023-09-07T14:41:07;8.30;;;3.58;;
30185;SDS011;31152;49.190;8.122;2023-09-07T14:43:37;4.72;;;3.13;;
30185;SDS011;31152;49.190;8.122;2023-09-07T14:46:04;5.40;;;3.55;;
30185;SDS011;31152;49.190;8.122;2023-09-07T14:48:32;7.13;;;3.60;;
30185;SDS011;31152;49.190;8.122;2023-09-07T14:50:59;6.70;;;3.30;;
30185;SDS011;31152;49.190;8.122;2023-09-07T14:53:25;6.07;;;3.78;;
30185;SDS011;31152;49.190;8.122;2023-09-07T14:55:52;4.03;;;3.63;;
30185;SDS011;31152;49.190;8.122;2023-09-07T14:58:19;3.40;;;3.10;;